createdAt,value
2019-04-27T00:03:50.153Z,68.30
2019-04-27T00:08:58.979Z,68.40
2019-04-27T00:14:04.888Z,68.50
2019-04-27T00:19:27.405Z,69.20
2019-04-27T00:24:33.874Z,69.40
2019-04-27T00:29:44.186Z,69.80
2019-04-27T00:34:48.807Z,69.90
2019-04-27T00:39:58.611Z,70.20
2019-04-27T00:45:05.226Z,70.40
2019-04-27T00:50:10.445Z,70.60
2019-04-27T00:55:14.884Z,70.80
2019-04-27T01:00:23.576Z,70.80
2019-04-27T01:05:31.039Z,71.30
2019-04-27T01:10:36.154Z,71.40
2019-04-27T01:15:40.829Z,71.60
2019-04-27T01:20:46.981Z,71.80
2019-04-27T01:26:02.015Z,72.00
2019-04-27T01:31:09.253Z,72.00
2019-04-27T01:36:13.801Z,72.30
2019-04-27T01:41:19.241Z,72.50
2019-04-27T01:46:29.060Z,72.50
2019-04-27T01:51:34.084Z,72.50
2019-04-27T01:56:43.046Z,72.60
2019-04-27T02:01:58.781Z,72.60
2019-04-27T02:07:09.994Z,72.70
2019-04-27T02:12:14.434Z,72.70
2019-04-27T02:17:20.325Z,72.60
2019-04-27T02:22:26.374Z,72.70
2019-04-27T02:27:32.530Z,73.10
2019-04-27T02:33:02.080Z,74.10
2019-04-27T02:38:10.778Z,74.30
2019-04-27T02:43:21.094Z,74.90
2019-04-27T02:48:30.615Z,75.20
2019-04-27T02:53:55.343Z,75.50
2019-04-27T02:59:05.501Z,76.10
2019-04-27T03:04:20.382Z,77.10
2019-04-27T03:09:30.478Z,77.70
2019-04-27T03:14:55.460Z,78.30
2019-04-27T03:20:10.548Z,79.00
2019-04-27T03:25:22.282Z,79.40
2019-04-27T03:30:35.438Z,79.90
2019-04-27T03:35:42.373Z,79.90
2019-04-27T03:40:45.539Z,80.40
2019-04-27T03:46:10.456Z,80.70
2019-04-27T03:51:33.655Z,80.90
2019-04-27T03:56:41.913Z,80.90
2019-04-27T04:01:51.373Z,81.10
2019-04-27T04:07:09.599Z,81.30
2019-04-27T04:12:15.816Z,81.30
2019-04-27T04:17:22.552Z,82.40
2019-04-27T04:22:31.033Z,81.90
2019-04-27T04:27:42.691Z,81.80
2019-04-27T04:32:52.490Z,81.90
2019-04-27T04:38:04.552Z,82.10
2019-04-27T04:43:11.165Z,82.30
2019-04-27T04:48:26.464Z,82.00
2019-04-27T04:53:36.410Z,81.90
2019-04-27T04:58:44.715Z,82.00
2019-04-27T05:03:59.199Z,82.00
2019-04-27T05:09:01.907Z,82.70
2019-04-27T05:14:15.675Z,83.80
2019-04-27T05:19:28.941Z,84.70
2019-04-27T05:24:39.442Z,85.30
2019-04-27T05:29:48.844Z,86.30
2019-04-27T05:34:53.086Z,86.80
2019-04-27T05:39:58.871Z,87.70
2019-04-27T05:45:19.949Z,88.30
2019-04-27T05:50:22.138Z,89.20
2019-04-27T05:55:26.556Z,90.00
2019-04-27T06:00:31.031Z,90.10
2019-04-27T06:05:35.274Z,90.40
2019-04-27T06:10:39.634Z,90.50
2019-04-27T06:15:44.117Z,90.60
2019-04-27T06:20:54.972Z,90.70
2019-04-27T06:25:54.652Z,90.60
2019-04-27T06:30:59.453Z,90.80
2019-04-27T06:36:10.172Z,91.00
2019-04-27T06:41:20.674Z,91.10
2019-04-27T06:46:24.980Z,91.20
2019-04-27T06:51:30.991Z,91.20
2019-04-27T06:56:35.325Z,91.40
2019-04-27T07:01:39.666Z,91.20
2019-04-27T07:06:53.303Z,91.10
2019-04-27T07:11:50.463Z,90.90
2019-04-27T07:16:54.890Z,90.70
2019-04-27T07:22:02.121Z,90.80
2019-04-27T07:27:06.473Z,90.60
2019-04-27T07:32:10.758Z,90.50
2019-04-27T07:37:15.140Z,90.00
2019-04-27T07:42:21.893Z,89.00
2019-04-27T07:47:27.118Z,90.00
2019-04-27T07:52:31.432Z,88.80
2019-04-27T07:57:35.647Z,89.50
2019-04-27T08:02:42.861Z,90.20
2019-04-27T08:07:48.991Z,89.40
2019-04-27T08:12:53.255Z,89.90
2019-04-27T08:17:59.153Z,89.10
2019-04-27T08:23:11.002Z,88.60
2019-04-27T08:28:23.006Z,87.30
2019-04-27T08:33:28.906Z,87.80
2019-04-27T08:38:33.457Z,85.30
2019-04-27T08:43:39.732Z,83.50
2019-04-27T08:48:44.244Z,81.60
2019-04-27T08:53:50.413Z,84.90
2019-04-27T08:58:55.168Z,84.60
2019-04-27T09:04:01.160Z,83.40
2019-04-27T09:09:19.383Z,81.10
2019-04-27T09:14:34.427Z,80.90
2019-04-27T09:19:55.454Z,80.70
2019-04-27T09:25:04.293Z,80.70
2019-04-27T09:30:10.272Z,79.20
2019-04-27T09:35:18.526Z,79.10
2019-04-27T09:40:24.140Z,78.00
2019-04-27T09:45:32.001Z,77.20
2019-04-27T09:50:37.138Z,76.40
2019-04-27T09:55:42.132Z,77.00
2019-04-27T10:00:50.152Z,77.10
2019-04-27T10:05:57.137Z,78.20
2019-04-27T10:11:05.964Z,75.60
2019-04-27T10:16:10.498Z,74.60
2019-04-27T10:21:16.313Z,74.50
2019-04-27T10:26:20.743Z,75.30
2019-04-27T10:31:24.955Z,74.80
2019-04-27T10:36:41.047Z,74.60
2019-04-27T10:41:46.292Z,73.20
2019-04-27T10:46:50.823Z,72.90
2019-04-27T10:51:56.811Z,72.50
2019-04-27T10:57:01.216Z,73.40
2019-04-27T11:02:05.720Z,72.00
2019-04-27T11:07:11.886Z,72.40
2019-04-27T11:12:16.343Z,64.80
2019-04-27T11:17:20.993Z,65.60
2019-04-27T11:22:27.101Z,67.00
2019-04-27T11:27:31.526Z,71.90
2019-04-27T11:32:35.831Z,76.60
2019-04-27T11:37:40.017Z,79.80
2019-04-27T11:42:44.334Z,77.70
2019-04-27T11:47:48.554Z,72.20
2019-04-27T11:52:52.887Z,71.50
2019-04-27T11:57:57.458Z,75.80
2019-04-27T12:03:01.796Z,77.50
2019-04-27T12:08:06.422Z,79.10
2019-04-27T12:13:10.752Z,78.90
2019-04-27T12:18:15.983Z,82.40
2019-04-27T12:23:33.100Z,81.40
2019-04-27T12:28:41.034Z,80.10
2019-04-27T12:33:46.057Z,80.30
2019-04-27T12:38:56.534Z,79.50
2019-04-27T12:44:02.464Z,83.90
2019-04-27T12:49:09.678Z,91.00
2019-04-27T13:00:01.681Z,87.70
2019-04-27T13:05:08.928Z,83.80
2019-04-27T13:10:17.698Z,81.20
2019-04-27T13:15:22.235Z,83.10
2019-04-27T13:20:26.519Z,80.60
2019-04-27T13:25:30.725Z,69.70
2019-04-27T13:30:35.802Z,69.10
2019-04-27T13:35:40.277Z,73.30
2019-04-27T13:40:45.881Z,69.00
2019-04-27T13:45:54.556Z,68.60
2019-04-27T13:51:06.628Z,67.80
2019-04-27T13:56:17.413Z,69.30
2019-04-27T14:01:21.958Z,71.40
2019-04-27T14:06:26.220Z,70.40
2019-04-27T14:11:30.573Z,67.70
2019-04-27T14:16:34.838Z,68.90
2019-04-27T14:21:39.091Z,69.60
2019-04-27T14:26:43.351Z,63.70
2019-04-27T14:31:47.864Z,63.80
2019-04-27T14:36:53.840Z,60.40
2019-04-27T14:41:58.107Z,63.10
2019-04-27T14:47:02.279Z,64.10
2019-04-27T14:52:06.572Z,68.00
2019-04-27T14:57:10.782Z,66.70
2019-04-27T15:02:15.047Z,65.10
2019-04-27T15:07:19.246Z,61.80
2019-04-27T15:12:30.014Z,61.90
2019-04-27T15:17:29.709Z,64.10
2019-04-27T15:22:35.052Z,66.60
2019-04-27T15:27:42.435Z,66.60
2019-04-27T15:32:52.630Z,67.10
2019-04-27T15:38:04.991Z,68.50
2019-04-27T15:43:11.039Z,69.20
2019-04-27T15:48:15.311Z,70.90
2019-04-27T15:53:19.696Z,68.80
2019-04-27T15:58:24.920Z,69.60
2019-04-27T16:03:31.371Z,70.30
2019-04-27T16:08:38.246Z,68.30
2019-04-27T16:13:41.779Z,75.90
2019-04-27T16:18:46.115Z,77.70
2019-04-27T16:23:50.328Z,79.10
2019-04-27T16:28:54.548Z,80.90
2019-04-27T16:34:02.612Z,79.90
2019-04-27T16:39:08.354Z,81.90
2019-04-27T16:44:13.687Z,79.80
2019-04-27T16:49:18.756Z,74.60
2019-04-27T16:54:23.006Z,75.40
2019-04-27T16:59:42.312Z,73.30
2019-04-27T17:04:34.926Z,74.50
2019-04-27T17:09:42.151Z,75.20
2019-04-27T17:14:49.603Z,73.50
2019-04-27T17:19:55.531Z,68.20
2019-04-27T17:24:59.749Z,74.20
2019-04-27T17:30:06.160Z,73.90
2019-04-27T17:35:14.708Z,73.90
2019-04-27T17:40:16.416Z,73.20
2019-04-27T17:45:21.709Z,74.40
2019-04-27T17:50:26.276Z,73.20
2019-04-27T17:55:33.875Z,74.10
2019-04-27T18:00:42.913Z,75.10
2019-04-27T18:05:50.591Z,75.80
2019-04-27T18:10:53.668Z,77.30
2019-04-27T18:15:58.962Z,77.80
2019-04-27T18:21:03.494Z,78.10
2019-04-27T18:26:12.693Z,78.00
2019-04-27T18:31:17.903Z,77.90
2019-04-27T18:36:22.207Z,77.60
2019-04-27T18:41:26.525Z,79.00
2019-04-27T18:46:30.794Z,78.60
2019-04-27T18:51:38.316Z,79.90
2019-04-27T18:56:42.689Z,80.50
2019-04-27T19:01:48.929Z,80.70
2019-04-27T19:06:53.281Z,80.10
2019-04-27T19:11:59.245Z,80.20
2019-04-27T19:17:12.186Z,78.80
2019-04-27T19:22:22.717Z,81.50
2019-04-27T19:27:35.607Z,82.50
2019-04-27T19:32:41.650Z,83.40
2019-04-27T19:37:48.732Z,80.20
2019-04-27T19:42:59.676Z,82.30
2019-04-27T19:48:10.346Z,81.80
2019-04-27T19:53:16.146Z,82.30
2019-04-27T19:58:26.566Z,84.30
2019-04-27T20:03:50.645Z,85.20
2019-04-27T20:08:58.232Z,85.70
2019-04-27T20:14:10.980Z,86.10
2019-04-27T20:19:34.290Z,86.50
2019-04-27T20:24:46.112Z,86.30
2019-04-27T20:30:00.626Z,87.10
2019-04-27T20:35:16.685Z,87.30
2019-04-27T20:40:48.602Z,87.50
2019-04-27T20:46:07.995Z,87.30
2019-04-27T20:51:35.233Z,87.10
2019-04-27T20:56:28.439Z,87.30
2019-04-27T21:01:39.337Z,87.30
2019-04-27T21:06:58.325Z,87.00
2019-04-27T21:23:02.361Z,85.70
2019-04-27T21:28:16.609Z,86.10
2019-04-27T21:33:25.074Z,85.90
2019-04-27T21:38:31.672Z,86.50
2019-04-27T21:43:42.065Z,86.30
2019-04-27T21:48:55.008Z,87.50
2019-04-27T21:54:04.632Z,87.80
2019-04-27T21:59:14.408Z,88.30
2019-04-27T22:04:19.937Z,88.00
2019-04-27T22:15:11.121Z,87.50
2019-04-27T22:20:32.419Z,87.00
2019-04-27T22:25:44.730Z,86.60
2019-04-27T22:30:57.526Z,86.40
2019-04-27T22:36:04.867Z,85.00
2019-04-27T22:41:21.230Z,85.20
2019-04-27T22:46:32.459Z,85.00
2019-04-27T22:51:43.107Z,84.40
2019-04-27T22:56:51.027Z,85.50
2019-04-27T23:03:13.969Z,84.90
2019-04-27T23:08:31.112Z,84.70
2019-04-27T23:24:08.674Z,84.40
2019-04-27T23:29:17.336Z,84.70
2019-04-27T23:34:29.422Z,82.20
2019-04-27T23:39:34.609Z,84.90
2019-04-27T23:44:41.988Z,84.70
2019-04-27T23:49:46.935Z,84.10
2019-04-27T23:55:12.864Z,83.20
